Météo des aéroports (METAR) proches de Ticheville

 

LFRG - St Gatien, France
Distance from station: N 52km
Mise à jour: 25/11/2017 11:30
Thunderstorm
Thunderstorm
 Wind from O
Vent: O 9 km/h
Température: 5°C
Wind Chill: 3°C
Point de rosée: 3°C
Humidité: 87%
Baromètre: 1018 hPa
Clouds: Thunderstorm
Visibility: 10 km
Cloud details: nuageux 274 m
nuageux 610 m
2017/11/25 10:30 LFRG 251030Z AUTO 28005KT 9999 BKN009/// BKN020/// ///TCU 05/03 Q1018 TEMPO 32020G35KT 3000 TSRA BKN015CB
LFRK - Caen/Carpiquet(A, France
Distance from station: ONO 60km
Mise à jour: 25/11/2017 12:00
Few Clouds
Few Clouds
 Wind from ONO
Vent: ONO 22 km/h
Température: 8°C
Wind Chill: 4°C
Point de rosée: 3°C
Humidité: 71%
Baromètre: 1019 hPa
Clouds: Few Clouds
Visibility: 10 km
Cloud details: Few Clouds 1494 m
2017/11/25 11:00 LFRK 251100Z AUTO 29012KT 9999 FEW049 08/03 Q1019 TEMPO 32020G35KT 3000 TSRA BKN015CB
 
LFOH - Le Havre/Octevil, France
Distance from station: NNO 69km
Mise à jour: 25/11/2017 12:00
Thunderstorm
Thunderstorm
 Wind from OSO
Vent: OSO 13 km/h
Température: 6°C
Wind Chill: 3°C
Point de rosée: 3°C
Humidité: 81%
Baromètre: 1018 hPa
Clouds: Thunderstorm
Visibility: 10 km
Cloud details: Few Clouds 1189 m
partiellement nuageux 1646 m
nuageux 2012 m
2017/11/25 11:00 LFOH 251100Z AUTO 24007KT 9999 FEW039/// SCT054/// BKN066/// ///CB 06/03 Q1018 TEMPO 35025G40KT 2000 TSRAGS
LFOE - Evreux/Fauville, France
Distance from station: E 70km
Mise à jour: 25/11/2017 12:00
nuageux
nuageux
 Wind from ONO
Vent: ONO 26 km/h
Température: 5°C
Wind Chill: 1°C
Point de rosée: 3°C
Humidité: 87%
Baromètre: 1017 hPa
Clouds: nuageux
Visibility: 10 km
Cloud details: partiellement nuageux 457 m
nuageux 1951 m
nuageux 2256 m
2017/11/25 11:00 LFOE 251100Z AUTO 30014KT 9999 SCT015 BKN064 BKN074 05/03 Q1017
 
LFOP - Rouen/Boos (aut), France
Distance from station: NE 83km
Mise à jour: 25/11/2017 12:00
pluie légère, nuageux
pluie légère, nuageux
 Wind from NNO
Vent: NNO 17 km/h
Température: 3°C
Wind Chill: -1°C
Point de rosée: 2°C
Humidité: 93%
Baromètre: 1017 hPa
Résumé: pluie légère
Clouds: nuageux
Visibility: 10 km
Cloud details: partiellement nuageux 305 m
nuageux 579 m
nuageux 945 m
2017/11/25 11:00 LFOP 251100Z AUTO 33009KT 9999 -RA SCT010 BKN019 BKN031 03/02 Q1017 TEMPO 4000 SHRA BKN020CB BECMG 35015G25KT
LFRM - Le Mans/Arnage(A, France
Distance from station: S 107km
Mise à jour: 25/11/2017 12:00
nuageux
nuageux
 Wind from ONO
Vent: ONO 17 km/h
Température: 8°C
Wind Chill: 5°C
Point de rosée: 3°C
Humidité: 71%
Baromètre: 1020 hPa
Clouds: nuageux
Visibility: 10 km
Cloud details: nuageux 610 m
nuageux 823 m
2017/11/25 11:00 LFRM 251100Z AUTO 29009KT 230V340 9999 BKN020 BKN027 08/03 Q1020 TEMPO BKN020TCU